sensor_id;sensor_type;location;lat;lon;timestamp;temperature;humidity
774;DHT22;370;48.810;9.150;2023-07-20T00:00:06;19.70;1.00
774;DHT22;370;48.810;9.150;2023-07-20T00:02:32;19.60;1.00
774;DHT22;370;48.810;9.150;2023-07-20T00:05:01;19.50;1.00
774;DHT22;370;48.810;9.150;2023-07-20T00:07:27;19.40;1.00
774;DHT22;370;48.810;9.150;2023-07-20T00:09:54;19.40;1.00
774;DHT22;370;48.810;9.150;2023-07-20T00:12:21;19.30;1.00
774;DHT22;370;48.810;9.150;2023-07-20T00:14:47;19.30;1.00
774;DHT22;370;48.810;9.150;2023-07-20T00:17:14;19.30;1.00
774;DHT22;370;48.810;9.150;2023-07-20T00:19:41;19.20;1.00
774;DHT22;370;48.810;9.150;2023-07-20T00:22:09;19.20;1.00
774;DHT22;370;48.810;9.150;2023-07-20T00:24:36;19.10;1.00
774;DHT22;370;48.810;9.150;2023-07-20T00:27:03;19.10;1.00
774;DHT22;370;48.810;9.150;2023-07-20T00:29:30;19.10;1.00
774;DHT22;370;48.810;9.150;2023-07-20T00:31:57;19.10;1.00
774;DHT22;370;48.810;9.150;2023-07-20T00:34:24;19.10;1.00
774;DHT22;370;48.810;9.150;2023-07-20T00:36:51;19.00;1.00
774;DHT22;370;48.810;9.150;2023-07-20T00:39:19;19.00;1.00
774;DHT22;370;48.810;9.150;2023-07-20T00:41:46;19.00;1.00
774;DHT22;370;48.810;9.150;2023-07-20T00:44:13;18.90;1.00
774;DHT22;370;48.810;9.150;2023-07-20T00:46:39;18.90;1.00
774;DHT22;370;48.810;9.150;2023-07-20T00:49:07;18.80;1.00
774;DHT22;370;48.810;9.150;2023-07-20T00:51:34;18.80;1.00
774;DHT22;370;48.810;9.150;2023-07-20T00:54:00;18.80;1.00
774;DHT22;370;48.810;9.150;2023-07-20T00:56:30;18.70;1.00
774;DHT22;370;48.810;9.150;2023-07-20T00:58:56;18.70;1.00
774;DHT22;370;48.810;9.150;2023-07-20T01:01:23;18.70;1.00
774;DHT22;370;48.810;9.150;2023-07-20T01:03:50;18.60;1.00
774;DHT22;370;48.810;9.150;2023-07-20T01:06:24;18.60;1.00
774;DHT22;370;48.810;9.150;2023-07-20T01:09:00;18.60;1.00
774;DHT22;370;48.810;9.150;2023-07-20T01:11:36;18.50;1.00
774;DHT22;370;48.810;9.150;2023-07-20T01:14:03;18.50;1.00
774;DHT22;370;48.810;9.150;2023-07-20T01:16:30;18.40;1.00
774;DHT22;370;48.810;9.150;2023-07-20T01:18:57;18.40;1.00
774;DHT22;370;48.810;9.150;2023-07-20T01:21:29;18.30;1.00
774;DHT22;370;48.810;9.150;2023-07-20T01:24:31;18.30;1.00
774;DHT22;370;48.810;9.150;2023-07-20T01:30:14;18.10;1.00
774;DHT22;370;48.810;9.150;2023-07-20T01:32:44;18.10;1.00
774;DHT22;370;48.810;9.150;2023-07-20T01:35:14;18.00;1.00
774;DHT22;370;48.810;9.150;2023-07-20T01:37:44;17.90;1.00
774;DHT22;370;48.810;9.150;2023-07-20T01:40:13;17.90;1.00
774;DHT22;370;48.810;9.150;2023-07-20T01:42:44;17.90;1.00
774;DHT22;370;48.810;9.150;2023-07-20T01:45:11;17.80;1.00
774;DHT22;370;48.810;9.150;2023-07-20T01:47:38;17.80;1.00
774;DHT22;370;48.810;9.150;2023-07-20T01:50:07;17.70;1.00
774;DHT22;370;48.810;9.150;2023-07-20T01:52:34;17.70;1.00
774;DHT22;370;48.810;9.150;2023-07-20T01:55:01;17.60;1.00
774;DHT22;370;48.810;9.150;2023-07-20T01:57:28;17.60;1.00
774;DHT22;370;48.810;9.150;2023-07-20T01:59:54;17.60;1.00
774;DHT22;370;48.810;9.150;2023-07-20T02:02:22;17.60;1.00
774;DHT22;370;48.810;9.150;2023-07-20T02:04:49;17.50;1.00
774;DHT22;370;48.810;9.150;2023-07-20T02:07:17;17.50;1.00
774;DHT22;370;48.810;9.150;2023-07-20T02:09:44;17.40;1.00
774;DHT22;370;48.810;9.150;2023-07-20T02:12:10;17.30;1.00
774;DHT22;370;48.810;9.150;2023-07-20T02:14:37;17.20;1.00
774;DHT22;370;48.810;9.150;2023-07-20T02:17:04;17.20;1.00
774;DHT22;370;48.810;9.150;2023-07-20T02:19:31;17.20;1.00
774;DHT22;370;48.810;9.150;2023-07-20T02:21:58;17.20;1.00
774;DHT22;370;48.810;9.150;2023-07-20T02:24:26;17.10;1.00
774;DHT22;370;48.810;9.150;2023-07-20T02:26:52;17.00;1.00
774;DHT22;370;48.810;9.150;2023-07-20T02:29:19;17.00;1.00
774;DHT22;370;48.810;9.150;2023-07-20T02:31:46;17.00;1.00
774;DHT22;370;48.810;9.150;2023-07-20T02:34:12;17.00;1.00
774;DHT22;370;48.810;9.150;2023-07-20T02:36:39;17.00;1.00
774;DHT22;370;48.810;9.150;2023-07-20T02:39:08;16.90;1.00
774;DHT22;370;48.810;9.150;2023-07-20T02:41:36;16.90;1.00
774;DHT22;370;48.810;9.150;2023-07-20T02:44:02;16.90;1.00
774;DHT22;370;48.810;9.150;2023-07-20T02:46:29;16.90;1.00
774;DHT22;370;48.810;9.150;2023-07-20T02:48:56;16.90;1.00
774;DHT22;370;48.810;9.150;2023-07-20T02:51:23;16.80;1.00
774;DHT22;370;48.810;9.150;2023-07-20T02:53:49;16.70;1.00
774;DHT22;370;48.810;9.150;2023-07-20T02:56:16;16.70;1.00
774;DHT22;370;48.810;9.150;2023-07-20T02:58:44;16.60;1.00
774;DHT22;370;48.810;9.150;2023-07-20T03:01:12;16.60;1.00
774;DHT22;370;48.810;9.150;2023-07-20T03:03:40;16.60;1.00
774;DHT22;370;48.810;9.150;2023-07-20T03:06:07;16.50;1.00
774;DHT22;370;48.810;9.150;2023-07-20T03:08:35;16.60;1.00
774;DHT22;370;48.810;9.150;2023-07-20T03:11:02;16.60;1.00
774;DHT22;370;48.810;9.150;2023-07-20T03:13:28;16.60;1.00
774;DHT22;370;48.810;9.150;2023-07-20T03:15:56;16.60;1.00
774;DHT22;370;48.810;9.150;2023-07-20T03:18:23;16.60;1.00
774;DHT22;370;48.810;9.150;2023-07-20T03:20:50;16.60;1.00
774;DHT22;370;48.810;9.150;2023-07-20T03:23:17;16.60;1.00
774;DHT22;370;48.810;9.150;2023-07-20T03:25:43;16.60;1.00
774;DHT22;370;48.810;9.150;2023-07-20T03:28:10;16.60;1.00
774;DHT22;370;48.810;9.150;2023-07-20T03:30:37;16.50;1.00
774;DHT22;370;48.810;9.150;2023-07-20T03:33:05;16.60;1.00
774;DHT22;370;48.810;9.150;2023-07-20T03:35:31;16.50;1.00
774;DHT22;370;48.810;9.150;2023-07-20T03:37:58;16.50;1.00
774;DHT22;370;48.810;9.150;2023-07-20T03:40:25;16.50;1.00
774;DHT22;370;48.810;9.150;2023-07-20T03:42:51;16.50;1.00
774;DHT22;370;48.810;9.150;2023-07-20T03:45:18;16.50;1.00
774;DHT22;370;48.810;9.150;2023-07-20T03:47:45;16.40;1.00
774;DHT22;370;48.810;9.150;2023-07-20T03:50:15;16.40;1.00
774;DHT22;370;48.810;9.150;2023-07-20T03:52:41;16.40;1.00
774;DHT22;370;48.810;9.150;2023-07-20T03:55:08;16.40;1.00
774;DHT22;370;48.810;9.150;2023-07-20T03:57:35;16.40;1.00
774;DHT22;370;48.810;9.150;2023-07-20T04:00:03;16.40;1.00
774;DHT22;370;48.810;9.150;2023-07-20T04:02:32;16.50;1.00
774;DHT22;370;48.810;9.150;2023-07-20T04:04:59;16.50;1.00
774;DHT22;370;48.810;9.150;2023-07-20T04:07:27;16.60;1.00
774;DHT22;370;48.810;9.150;2023-07-20T04:09:54;16.60;1.00
774;DHT22;370;48.810;9.150;2023-07-20T04:12:21;16.70;1.00
774;DHT22;370;48.810;9.150;2023-07-20T04:14:47;16.70;1.00
774;DHT22;370;48.810;9.150;2023-07-20T04:17:14;16.80;1.00
774;DHT22;370;48.810;9.150;2023-07-20T04:19:41;16.90;1.00
774;DHT22;370;48.810;9.150;2023-07-20T04:22:08;16.90;1.00
774;DHT22;370;48.810;9.150;2023-07-20T04:24:36;16.90;1.00
774;DHT22;370;48.810;9.150;2023-07-20T04:27:03;17.00;1.00
774;DHT22;370;48.810;9.150;2023-07-20T04:29:29;17.10;1.00
774;DHT22;370;48.810;9.150;2023-07-20T04:31:56;17.20;1.00
774;DHT22;370;48.810;9.150;2023-07-20T04:34:23;17.30;1.00
774;DHT22;370;48.810;9.150;2023-07-20T04:36:50;17.40;1.00
774;DHT22;370;48.810;9.150;2023-07-20T04:39:16;17.50;1.00
774;DHT22;370;48.810;9.150;2023-07-20T04:41:45;17.70;1.00
774;DHT22;370;48.810;9.150;2023-07-20T04:44:13;17.80;1.00
774;DHT22;370;48.810;9.150;2023-07-20T04:46:40;17.90;1.00
774;DHT22;370;48.810;9.150;2023-07-20T04:49:07;18.10;1.00
774;DHT22;370;48.810;9.150;2023-07-20T04:51:34;18.20;1.00
774;DHT22;370;48.810;9.150;2023-07-20T04:54:01;18.30;1.00
774;DHT22;370;48.810;9.150;2023-07-20T04:56:27;18.50;1.00
774;DHT22;370;48.810;9.150;2023-07-20T04:58:55;18.70;1.00
774;DHT22;370;48.810;9.150;2023-07-20T05:01:22;18.90;1.00
774;DHT22;370;48.810;9.150;2023-07-20T05:03:49;19.10;1.00
774;DHT22;370;48.810;9.150;2023-07-20T05:06:16;19.30;1.00
774;DHT22;370;48.810;9.150;2023-07-20T05:08:42;19.40;1.00
774;DHT22;370;48.810;9.150;2023-07-20T05:11:09;19.60;1.00
774;DHT22;370;48.810;9.150;2023-07-20T05:13:37;19.90;1.00
774;DHT22;370;48.810;9.150;2023-07-20T05:16:05;20.10;1.00
774;DHT22;370;48.810;9.150;2023-07-20T05:18:32;20.50;1.00
774;DHT22;370;48.810;9.150;2023-07-20T05:20:59;20.80;1.00
774;DHT22;370;48.810;9.150;2023-07-20T05:23:26;21.00;1.00
774;DHT22;370;48.810;9.150;2023-07-20T05:25:56;21.30;1.00
774;DHT22;370;48.810;9.150;2023-07-20T05:28:23;21.40;1.00
774;DHT22;370;48.810;9.150;2023-07-20T05:30:50;21.60;1.00
774;DHT22;370;48.810;9.150;2023-07-20T05:33:19;21.70;1.00
774;DHT22;370;48.810;9.150;2023-07-20T05:35:46;21.90;1.00
774;DHT22;370;48.810;9.150;2023-07-20T05:38:12;22.00;1.00
774;DHT22;370;48.810;9.150;2023-07-20T05:40:41;22.20;1.00
774;DHT22;370;48.810;9.150;2023-07-20T05:43:08;22.30;1.00
774;DHT22;370;48.810;9.150;2023-07-20T05:45:34;22.40;1.00
774;DHT22;370;48.810;9.150;2023-07-20T05:48:01;22.50;1.00
774;DHT22;370;48.810;9.150;2023-07-20T05:50:29;22.60;1.00
774;DHT22;370;48.810;9.150;2023-07-20T05:52:56;22.70;1.00
774;DHT22;370;48.810;9.150;2023-07-20T05:55:23;22.80;1.00
774;DHT22;370;48.810;9.150;2023-07-20T05:57:49;22.90;1.00
774;DHT22;370;48.810;9.150;2023-07-20T06:00:17;23.00;1.00
774;DHT22;370;48.810;9.150;2023-07-20T06:02:44;23.30;1.00
774;DHT22;370;48.810;9.150;2023-07-20T06:05:13;23.50;1.00
774;DHT22;370;48.810;9.150;2023-07-20T06:07:42;23.80;1.00
774;DHT22;370;48.810;9.150;2023-07-20T06:10:09;24.20;1.00
774;DHT22;370;48.810;9.150;2023-07-20T06:12:36;24.40;1.00
774;DHT22;370;48.810;9.150;2023-07-20T06:15:04;24.50;1.00
774;DHT22;370;48.810;9.150;2023-07-20T06:17:32;24.40;1.00
774;DHT22;370;48.810;9.150;2023-07-20T06:19:59;24.40;1.00
774;DHT22;370;48.810;9.150;2023-07-20T06:22:26;24.40;1.00
774;DHT22;370;48.810;9.150;2023-07-20T06:24:54;24.40;1.00
774;DHT22;370;48.810;9.150;2023-07-20T06:27:20;24.30;1.00
774;DHT22;370;48.810;9.150;2023-07-20T06:29:47;24.30;1.00
774;DHT22;370;48.810;9.150;2023-07-20T06:32:14;24.30;1.00
774;DHT22;370;48.810;9.150;2023-07-20T06:34:41;24.40;1.00
774;DHT22;370;48.810;9.150;2023-07-20T06:37:08;24.50;1.00
774;DHT22;370;48.810;9.150;2023-07-20T06:39:35;24.70;1.00
774;DHT22;370;48.810;9.150;2023-07-20T06:42:03;24.60;1.00
774;DHT22;370;48.810;9.150;2023-07-20T06:44:30;24.50;1.00
774;DHT22;370;48.810;9.150;2023-07-20T06:46:57;24.50;1.00
774;DHT22;370;48.810;9.150;2023-07-20T06:49:24;24.60;1.00
774;DHT22;370;48.810;9.150;2023-07-20T06:51:52;24.40;1.00
774;DHT22;370;48.810;9.150;2023-07-20T06:54:19;24.40;1.00
774;DHT22;370;48.810;9.150;2023-07-20T06:56:46;24.40;1.00
774;DHT22;370;48.810;9.150;2023-07-20T06:59:14;24.50;1.00
774;DHT22;370;48.810;9.150;2023-07-20T07:01:41;24.60;1.00
774;DHT22;370;48.810;9.150;2023-07-20T07:04:07;24.80;1.00
774;DHT22;370;48.810;9.150;2023-07-20T07:06:35;25.10;1.00
774;DHT22;370;48.810;9.150;2023-07-20T07:09:02;25.50;1.00
774;DHT22;370;48.810;9.150;2023-07-20T07:11:29;25.60;1.00
774;DHT22;370;48.810;9.150;2023-07-20T07:13:56;25.80;1.00
774;DHT22;370;48.810;9.150;2023-07-20T07:16:24;26.40;1.00
774;DHT22;370;48.810;9.150;2023-07-20T07:18:51;27.10;1.00
774;DHT22;370;48.810;9.150;2023-07-20T07:21:18;27.20;1.00
774;DHT22;370;48.810;9.150;2023-07-20T07:23:45;27.50;1.00
774;DHT22;370;48.810;9.150;2023-07-20T07:26:12;27.70;1.00
774;DHT22;370;48.810;9.150;2023-07-20T07:28:39;27.80;1.00
774;DHT22;370;48.810;9.150;2023-07-20T07:31:07;27.90;1.00
774;DHT22;370;48.810;9.150;2023-07-20T07:33:35;28.40;1.00
774;DHT22;370;48.810;9.150;2023-07-20T07:36:02;28.60;1.00
774;DHT22;370;48.810;9.150;2023-07-20T07:38:29;28.20;1.00
774;DHT22;370;48.810;9.150;2023-07-20T07:40:55;29.00;1.00
774;DHT22;370;48.810;9.150;2023-07-20T07:43:22;29.60;1.00
774;DHT22;370;48.810;9.150;2023-07-20T07:45:54;30.20;1.00
774;DHT22;370;48.810;9.150;2023-07-20T07:48:22;30.80;1.00
774;DHT22;370;48.810;9.150;2023-07-20T07:50:53;31.20;1.00
774;DHT22;370;48.810;9.150;2023-07-20T07:53:20;31.20;1.00
774;DHT22;370;48.810;9.150;2023-07-20T07:55:47;30.80;1.00
774;DHT22;370;48.810;9.150;2023-07-20T07:58:14;30.60;1.00
774;DHT22;370;48.810;9.150;2023-07-20T08:00:41;29.60;1.00
774;DHT22;370;48.810;9.150;2023-07-20T08:03:08;29.50;1.00
774;DHT22;370;48.810;9.150;2023-07-20T08:05:35;29.50;1.00
774;DHT22;370;48.810;9.150;2023-07-20T08:08:04;29.90;1.00
774;DHT22;370;48.810;9.150;2023-07-20T08:10:31;30.30;1.00
774;DHT22;370;48.810;9.150;2023-07-20T08:12:58;31.50;1.00
774;DHT22;370;48.810;9.150;2023-07-20T08:15:25;33.10;1.00
774;DHT22;370;48.810;9.150;2023-07-20T08:17:51;34.40;1.00
774;DHT22;370;48.810;9.150;2023-07-20T08:20:19;34.60;1.00
774;DHT22;370;48.810;9.150;2023-07-20T08:22:51;32.50;1.00
774;DHT22;370;48.810;9.150;2023-07-20T08:25:20;31.00;1.00
774;DHT22;370;48.810;9.150;2023-07-20T08:27:47;29.60;1.00
774;DHT22;370;48.810;9.150;2023-07-20T08:30:14;28.60;1.00
774;DHT22;370;48.810;9.150;2023-07-20T08:32:40;27.60;1.00
774;DHT22;370;48.810;9.150;2023-07-20T08:35:08;27.40;1.00
774;DHT22;370;48.810;9.150;2023-07-20T08:37:35;28.80;1.00
774;DHT22;370;48.810;9.150;2023-07-20T08:40:02;30.70;1.00
774;DHT22;370;48.810;9.150;2023-07-20T08:42:35;32.60;1.00
774;DHT22;370;48.810;9.150;2023-07-20T08:45:06;34.70;1.00
774;DHT22;370;48.810;9.150;2023-07-20T08:47:34;36.70;1.00
774;DHT22;370;48.810;9.150;2023-07-20T08:50:02;38.50;1.00
774;DHT22;370;48.810;9.150;2023-07-20T08:52:33;39.40;1.00
774;DHT22;370;48.810;9.150;2023-07-20T08:55:01;38.50;1.00
774;DHT22;370;48.810;9.150;2023-07-20T08:57:29;38.00;1.00
774;DHT22;370;48.810;9.150;2023-07-20T09:00:03;36.20;1.00
774;DHT22;370;48.810;9.150;2023-07-20T09:02:35;34.90;1.00
774;DHT22;370;48.810;9.150;2023-07-20T09:05:04;34.90;1.00
774;DHT22;370;48.810;9.150;2023-07-20T09:07:31;36.00;1.00
774;DHT22;370;48.810;9.150;2023-07-20T09:09:58;37.10;1.00
774;DHT22;370;48.810;9.150;2023-07-20T09:12:31;38.20;1.00
774;DHT22;370;48.810;9.150;2023-07-20T09:14:58;38.30;1.00
774;DHT22;370;48.810;9.150;2023-07-20T09:17:27;38.50;1.00
774;DHT22;370;48.810;9.150;2023-07-20T09:19:53;38.40;1.00
774;DHT22;370;48.810;9.150;2023-07-20T09:22:20;37.40;1.00
774;DHT22;370;48.810;9.150;2023-07-20T09:24:47;35.80;1.00
774;DHT22;370;48.810;9.150;2023-07-20T09:27:14;33.70;1.00
774;DHT22;370;48.810;9.150;2023-07-20T09:29:48;32.30;1.00
774;DHT22;370;48.810;9.150;2023-07-20T09:32:18;31.40;1.00
774;DHT22;370;48.810;9.150;2023-07-20T09:34:48;32.00;1.00
774;DHT22;370;48.810;9.150;2023-07-20T09:37:20;34.00;1.00
774;DHT22;370;48.810;9.150;2023-07-20T09:39:47;36.20;1.00
774;DHT22;370;48.810;9.150;2023-07-20T09:42:15;38.40;1.00
774;DHT22;370;48.810;9.150;2023-07-20T09:44:44;39.10;1.00
774;DHT22;370;48.810;9.150;2023-07-20T09:47:11;39.20;1.00
774;DHT22;370;48.810;9.150;2023-07-20T09:49:39;38.60;1.00
774;DHT22;370;48.810;9.150;2023-07-20T09:52:08;39.10;1.00
774;DHT22;370;48.810;9.150;2023-07-20T09:54:37;39.20;1.00
774;DHT22;370;48.810;9.150;2023-07-20T09:57:07;38.10;1.00
774;DHT22;370;48.810;9.150;2023-07-20T09:59:34;37.90;1.00
774;DHT22;370;48.810;9.150;2023-07-20T10:02:07;39.00;1.00
774;DHT22;370;48.810;9.150;2023-07-20T10:04:38;40.10;1.00
774;DHT22;370;48.810;9.150;2023-07-20T10:07:10;40.90;1.00
774;DHT22;370;48.810;9.150;2023-07-20T10:09:39;41.10;1.00
774;DHT22;370;48.810;9.150;2023-07-20T10:12:08;41.80;1.00
774;DHT22;370;48.810;9.150;2023-07-20T10:14:40;42.80;1.00
774;DHT22;370;48.810;9.150;2023-07-20T10:17:11;43.00;1.00
774;DHT22;370;48.810;9.150;2023-07-20T10:19:42;42.00;1.00
774;DHT22;370;48.810;9.150;2023-07-20T10:22:14;41.20;1.00
774;DHT22;370;48.810;9.150;2023-07-20T10:24:45;38.90;1.00
774;DHT22;370;48.810;9.150;2023-07-20T10:27:12;38.10;1.00
774;DHT22;370;48.810;9.150;2023-07-20T10:29:40;39.40;1.00
774;DHT22;370;48.810;9.150;2023-07-20T10:32:08;41.50;1.00
774;DHT22;370;48.810;9.150;2023-07-20T10:34:35;42.50;1.00
774;DHT22;370;48.810;9.150;2023-07-20T10:37:02;42.40;1.00
774;DHT22;370;48.810;9.150;2023-07-20T10:39:32;42.70;1.00
774;DHT22;370;48.810;9.150;2023-07-20T10:42:03;42.70;1.00
774;DHT22;370;48.810;9.150;2023-07-20T10:44:30;43.10;1.00
774;DHT22;370;48.810;9.150;2023-07-20T10:47:00;43.40;1.00
774;DHT22;370;48.810;9.150;2023-07-20T10:49:28;40.90;1.00
774;DHT22;370;48.810;9.150;2023-07-20T10:51:59;39.80;1.00
774;DHT22;370;48.810;9.150;2023-07-20T10:54:36;37.70;1.00
774;DHT22;370;48.810;9.150;2023-07-20T10:57:24;37.80;1.00
774;DHT22;370;48.810;9.150;2023-07-20T10:59:51;38.70;1.00
774;DHT22;370;48.810;9.150;2023-07-20T11:02:19;38.50;1.00
774;DHT22;370;48.810;9.150;2023-07-20T11:04:47;39.70;1.00
774;DHT22;370;48.810;9.150;2023-07-20T11:10:14;41.80;1.00
774;DHT22;370;48.810;9.150;2023-07-20T11:13:20;43.60;1.00
774;DHT22;370;48.810;9.150;2023-07-20T11:16:01;45.10;1.00
774;DHT22;370;48.810;9.150;2023-07-20T11:18:29;45.10;1.00
774;DHT22;370;48.810;9.150;2023-07-20T11:20:56;45.60;1.00
774;DHT22;370;48.810;9.150;2023-07-20T11:23:23;45.10;1.00
774;DHT22;370;48.810;9.150;2023-07-20T11:25:51;45.10;1.00
774;DHT22;370;48.810;9.150;2023-07-20T11:28:18;45.30;1.00
774;DHT22;370;48.810;9.150;2023-07-20T11:30:45;44.10;1.00
774;DHT22;370;48.810;9.150;2023-07-20T11:33:16;41.40;1.00
774;DHT22;370;48.810;9.150;2023-07-20T11:35:44;40.50;1.00
774;DHT22;370;48.810;9.150;2023-07-20T11:38:12;40.10;1.00
774;DHT22;370;48.810;9.150;2023-07-20T11:40:42;40.70;1.00
774;DHT22;370;48.810;9.150;2023-07-20T11:43:11;40.20;1.00
774;DHT22;370;48.810;9.150;2023-07-20T11:45:38;38.60;1.00
774;DHT22;370;48.810;9.150;2023-07-20T11:48:05;40.20;1.00
774;DHT22;370;48.810;9.150;2023-07-20T11:50:39;42.10;1.00
774;DHT22;370;48.810;9.150;2023-07-20T11:53:06;42.80;1.00
774;DHT22;370;48.810;9.150;2023-07-20T11:55:35;40.40;1.00
774;DHT22;370;48.810;9.150;2023-07-20T11:58:04;40.50;1.00
774;DHT22;370;48.810;9.150;2023-07-20T12:00:33;42.40;1.00
774;DHT22;370;48.810;9.150;2023-07-20T12:03:01;43.30;1.00
774;DHT22;370;48.810;9.150;2023-07-20T12:05:27;44.30;1.00
774;DHT22;370;48.810;9.150;2023-07-20T12:07:55;44.80;1.00
774;DHT22;370;48.810;9.150;2023-07-20T12:10:26;44.70;1.00
774;DHT22;370;48.810;9.150;2023-07-20T12:12:54;45.30;1.00
774;DHT22;370;48.810;9.150;2023-07-20T12:15:22;46.40;1.00
774;DHT22;370;48.810;9.150;2023-07-20T12:17:52;46.90;1.00
774;DHT22;370;48.810;9.150;2023-07-20T12:20:26;46.90;1.00
774;DHT22;370;48.810;9.150;2023-07-20T12:22:56;45.70;1.00
774;DHT22;370;48.810;9.150;2023-07-20T12:25:23;44.50;1.00
774;DHT22;370;48.810;9.150;2023-07-20T12:28:01;44.40;1.00
774;DHT22;370;48.810;9.150;2023-07-20T12:30:29;44.10;1.00
774;DHT22;370;48.810;9.150;2023-07-20T12:32:57;42.30;1.00
774;DHT22;370;48.810;9.150;2023-07-20T12:35:24;41.30;1.00
774;DHT22;370;48.810;9.150;2023-07-20T12:37:51;42.60;1.00
774;DHT22;370;48.810;9.150;2023-07-20T12:40:20;43.90;1.00
774;DHT22;370;48.810;9.150;2023-07-20T12:42:46;44.10;1.00
774;DHT22;370;48.810;9.150;2023-07-20T12:45:14;42.20;1.00
774;DHT22;370;48.810;9.150;2023-07-20T12:47:41;41.70;1.00
774;DHT22;370;48.810;9.150;2023-07-20T12:50:10;41.50;1.00
774;DHT22;370;48.810;9.150;2023-07-20T12:52:37;42.60;1.00
774;DHT22;370;48.810;9.150;2023-07-20T12:55:06;43.10;1.00
774;DHT22;370;48.810;9.150;2023-07-20T12:57:33;43.60;1.00
774;DHT22;370;48.810;9.150;2023-07-20T13:00:00;44.70;1.00
774;DHT22;370;48.810;9.150;2023-07-20T13:02:29;45.40;1.00
774;DHT22;370;48.810;9.150;2023-07-20T13:04:56;44.80;1.00
774;DHT22;370;48.810;9.150;2023-07-20T13:07:31;45.00;1.00
774;DHT22;370;48.810;9.150;2023-07-20T13:09:58;44.60;1.00
774;DHT22;370;48.810;9.150;2023-07-20T13:12:26;44.80;1.00
774;DHT22;370;48.810;9.150;2023-07-20T13:14:54;45.90;1.00
774;DHT22;370;48.810;9.150;2023-07-20T13:17:20;46.20;1.00
774;DHT22;370;48.810;9.150;2023-07-20T13:19:47;46.60;1.00
774;DHT22;370;48.810;9.150;2023-07-20T13:22:14;46.70;1.00
774;DHT22;370;48.810;9.150;2023-07-20T13:24:44;46.20;1.00
774;DHT22;370;48.810;9.150;2023-07-20T13:27:18;46.40;1.00
774;DHT22;370;48.810;9.150;2023-07-20T13:29:45;46.10;1.00
774;DHT22;370;48.810;9.150;2023-07-20T13:32:13;46.30;1.00
774;DHT22;370;48.810;9.150;2023-07-20T13:34:41;46.70;1.00
774;DHT22;370;48.810;9.150;2023-07-20T13:37:08;46.50;1.00
774;DHT22;370;48.810;9.150;2023-07-20T13:39:36;46.20;1.00
774;DHT22;370;48.810;9.150;2023-07-20T13:42:03;46.00;1.00
774;DHT22;370;48.810;9.150;2023-07-20T13:44:32;45.80;1.00
774;DHT22;370;48.810;9.150;2023-07-20T13:46:59;45.10;1.00
774;DHT22;370;48.810;9.150;2023-07-20T13:49:26;44.50;1.00
774;DHT22;370;48.810;9.150;2023-07-20T13:51:53;43.70;1.00
774;DHT22;370;48.810;9.150;2023-07-20T13:54:20;42.10;1.00
774;DHT22;370;48.810;9.150;2023-07-20T13:56:47;41.50;1.00
774;DHT22;370;48.810;9.150;2023-07-20T13:59:14;41.40;1.00
774;DHT22;370;48.810;9.150;2023-07-20T14:01:42;41.10;1.00
774;DHT22;370;48.810;9.150;2023-07-20T14:04:09;40.70;1.00
774;DHT22;370;48.810;9.150;2023-07-20T14:06:39;41.50;1.00
774;DHT22;370;48.810;9.150;2023-07-20T14:09:11;41.80;1.00
774;DHT22;370;48.810;9.150;2023-07-20T14:11:38;43.10;1.00
774;DHT22;370;48.810;9.150;2023-07-20T14:14:04;43.70;1.00
774;DHT22;370;48.810;9.150;2023-07-20T14:16:31;43.00;1.00
774;DHT22;370;48.810;9.150;2023-07-20T14:19:00;42.80;1.00
774;DHT22;370;48.810;9.150;2023-07-20T14:21:26;43.20;1.00
774;DHT22;370;48.810;9.150;2023-07-20T14:23:54;43.70;1.00
774;DHT22;370;48.810;9.150;2023-07-20T14:26:21;44.10;1.00
774;DHT22;370;48.810;9.150;2023-07-20T14:28:47;44.60;1.00
774;DHT22;370;48.810;9.150;2023-07-20T14:31:14;45.10;1.00
774;DHT22;370;48.810;9.150;2023-07-20T14:33:41;46.00;1.00
774;DHT22;370;48.810;9.150;2023-07-20T14:36:09;46.20;1.00
774;DHT22;370;48.810;9.150;2023-07-20T14:38:36;45.40;1.00
774;DHT22;370;48.810;9.150;2023-07-20T14:41:03;44.30;1.00
774;DHT22;370;48.810;9.150;2023-07-20T14:43:31;44.00;1.00
774;DHT22;370;48.810;9.150;2023-07-20T14:45:58;44.30;1.00
774;DHT22;370;48.810;9.150;2023-07-20T14:48:24;44.00;1.00
774;DHT22;370;48.810;9.150;2023-07-20T14:50:51;43.30;1.00
774;DHT22;370;48.810;9.150;2023-07-20T14:53:19;42.50;1.00
774;DHT22;370;48.810;9.150;2023-07-20T15:32:06;36.50;1.00
774;DHT22;370;48.810;9.150;2023-07-20T15:34:34;36.60;1.00
774;DHT22;370;48.810;9.150;2023-07-20T15:37:00;36.80;1.00
774;DHT22;370;48.810;9.150;2023-07-20T15:39:28;37.40;1.00
774;DHT22;370;48.810;9.150;2023-07-20T15:41:55;37.80;1.00
774;DHT22;370;48.810;9.150;2023-07-20T15:44:22;37.70;1.00
774;DHT22;370;48.810;9.150;2023-07-20T15:46:49;36.60;1.00
774;DHT22;370;48.810;9.150;2023-07-20T15:49:17;35.40;1.00
774;DHT22;370;48.810;9.150;2023-07-20T15:51:44;34.80;1.00
774;DHT22;370;48.810;9.150;2023-07-20T15:54:12;34.30;1.00
774;DHT22;370;48.810;9.150;2023-07-20T15:56:39;33.50;1.00
774;DHT22;370;48.810;9.150;2023-07-20T15:59:08;32.60;1.00
774;DHT22;370;48.810;9.150;2023-07-20T16:01:36;31.60;1.00
774;DHT22;370;48.810;9.150;2023-07-20T16:04:04;31.00;1.00
774;DHT22;370;48.810;9.150;2023-07-20T16:06:32;30.40;1.00
774;DHT22;370;48.810;9.150;2023-07-20T16:09:01;29.90;1.00
774;DHT22;370;48.810;9.150;2023-07-20T16:11:29;29.40;1.00
774;DHT22;370;48.810;9.150;2023-07-20T16:13:56;29.40;1.00
774;DHT22;370;48.810;9.150;2023-07-20T16:16:23;29.20;1.00
774;DHT22;370;48.810;9.150;2023-07-20T16:18:50;29.10;1.00
774;DHT22;370;48.810;9.150;2023-07-20T16:21:19;29.10;1.00
774;DHT22;370;48.810;9.150;2023-07-20T16:23:48;29.00;1.00
774;DHT22;370;48.810;9.150;2023-07-20T16:26:14;28.80;1.00
774;DHT22;370;48.810;9.150;2023-07-20T16:28:41;28.80;1.00
774;DHT22;370;48.810;9.150;2023-07-20T16:31:09;28.80;1.00
774;DHT22;370;48.810;9.150;2023-07-20T16:33:37;28.70;1.00
774;DHT22;370;48.810;9.150;2023-07-20T16:36:07;28.50;1.00
774;DHT22;370;48.810;9.150;2023-07-20T16:38:34;28.20;1.00
774;DHT22;370;48.810;9.150;2023-07-20T16:41:04;28.00;1.00
774;DHT22;370;48.810;9.150;2023-07-20T16:43:32;27.60;1.00
774;DHT22;370;48.810;9.150;2023-07-20T16:45:59;27.40;1.00
774;DHT22;370;48.810;9.150;2023-07-20T16:48:26;27.20;1.00
774;DHT22;370;48.810;9.150;2023-07-20T16:50:53;27.00;1.00
774;DHT22;370;48.810;9.150;2023-07-20T16:53:22;26.90;1.00
774;DHT22;370;48.810;9.150;2023-07-20T16:55:49;26.80;1.00
774;DHT22;370;48.810;9.150;2023-07-20T16:58:19;26.70;1.00
774;DHT22;370;48.810;9.150;2023-07-20T17:00:46;26.60;1.00
774;DHT22;370;48.810;9.150;2023-07-20T17:03:14;26.40;1.00
774;DHT22;370;48.810;9.150;2023-07-20T17:05:41;26.40;1.00
774;DHT22;370;48.810;9.150;2023-07-20T17:08:08;26.40;1.00
774;DHT22;370;48.810;9.150;2023-07-20T17:10:35;26.40;1.00
774;DHT22;370;48.810;9.150;2023-07-20T17:13:02;26.40;1.00
774;DHT22;370;48.810;9.150;2023-07-20T17:15:32;26.50;1.00
774;DHT22;370;48.810;9.150;2023-07-20T17:17:59;26.50;1.00
774;DHT22;370;48.810;9.150;2023-07-20T17:20:25;26.50;1.00
774;DHT22;370;48.810;9.150;2023-07-20T17:22:52;26.40;1.00
774;DHT22;370;48.810;9.150;2023-07-20T17:25:19;26.30;1.00
774;DHT22;370;48.810;9.150;2023-07-20T17:27:46;26.30;1.00
774;DHT22;370;48.810;9.150;2023-07-20T17:30:14;26.20;1.00
774;DHT22;370;48.810;9.150;2023-07-20T17:32:42;26.10;1.00
774;DHT22;370;48.810;9.150;2023-07-20T17:35:09;26.10;1.00
774;DHT22;370;48.810;9.150;2023-07-20T17:37:38;25.90;1.00